sensor_id;sensor_type;location;lat;lon;timestamp;temperature;humidity
80258;DHT22;69565;37.974;23.708;2023-09-30T00:01:00;26.00;45.10
80258;DHT22;69565;37.974;23.708;2023-09-30T00:03:26;26.00;45.10
80258;DHT22;69565;37.974;23.708;2023-09-30T00:05:52;26.00;45.10
80258;DHT22;69565;37.974;23.708;2023-09-30T00:08:17;26.00;45.20
80258;DHT22;69565;37.974;23.708;2023-09-30T00:10:43;26.00;45.20
80258;DHT22;69565;37.974;23.708;2023-09-30T00:13:09;26.10;45.30
80258;DHT22;69565;37.974;23.708;2023-09-30T00:15:35;26.10;45.30
80258;DHT22;69565;37.974;23.708;2023-09-30T00:18:01;26.10;45.30
80258;DHT22;69565;37.974;23.708;2023-09-30T00:20:28;26.10;45.30
80258;DHT22;69565;37.974;23.708;2023-09-30T00:22:54;26.00;45.30
80258;DHT22;69565;37.974;23.708;2023-09-30T00:25:19;26.00;45.30
80258;DHT22;69565;37.974;23.708;2023-09-30T00:27:46;26.00;45.30
80258;DHT22;69565;37.974;23.708;2023-09-30T00:30:13;26.00;45.30
80258;DHT22;69565;37.974;23.708;2023-09-30T00:32:38;26.00;45.30
80258;DHT22;69565;37.974;23.708;2023-09-30T00:35:06;26.00;45.30
80258;DHT22;69565;37.974;23.708;2023-09-30T00:37:39;26.00;45.40
80258;DHT22;69565;37.974;23.708;2023-09-30T00:40:06;26.00;45.40
80258;DHT22;69565;37.974;23.708;2023-09-30T00:42:32;26.00;45.40
80258;DHT22;69565;37.974;23.708;2023-09-30T00:44:58;26.00;46.60
80258;DHT22;69565;37.974;23.708;2023-09-30T00:47:25;26.00;45.50
80258;DHT22;69565;37.974;23.708;2023-09-30T00:49:52;26.00;45.50
80258;DHT22;69565;37.974;23.708;2023-09-30T00:52:19;26.00;45.50
80258;DHT22;69565;37.974;23.708;2023-09-30T00:54:46;26.00;45.60
80258;DHT22;69565;37.974;23.708;2023-09-30T00:57:13;26.00;45.60
80258;DHT22;69565;37.974;23.708;2023-09-30T00:59:40;26.00;45.50
80258;DHT22;69565;37.974;23.708;2023-09-30T01:02:06;26.00;45.50
80258;DHT22;69565;37.974;23.708;2023-09-30T01:04:33;26.00;45.60
80258;DHT22;69565;37.974;23.708;2023-09-30T01:06:59;26.00;45.50
80258;DHT22;69565;37.974;23.708;2023-09-30T01:09:25;26.00;45.50
80258;DHT22;69565;37.974;23.708;2023-09-30T01:11:51;26.00;45.50
80258;DHT22;69565;37.974;23.708;2023-09-30T01:14:27;26.00;45.50
80258;DHT22;69565;37.974;23.708;2023-09-30T01:16:54;26.00;45.50
80258;DHT22;69565;37.974;23.708;2023-09-30T01:19:20;26.00;45.60
80258;DHT22;69565;37.974;23.708;2023-09-30T01:21:46;26.00;45.50
80258;DHT22;69565;37.974;23.708;2023-09-30T01:24:17;26.00;46.50
80258;DHT22;69565;37.974;23.708;2023-09-30T01:26:43;26.00;45.50
80258;DHT22;69565;37.974;23.708;2023-09-30T01:29:09;26.00;45.50
80258;DHT22;69565;37.974;23.708;2023-09-30T01:31:37;26.00;45.60
80258;DHT22;69565;37.974;23.708;2023-09-30T01:34:02;26.00;45.60
80258;DHT22;69565;37.974;23.708;2023-09-30T01:36:28;26.00;45.50
80258;DHT22;69565;37.974;23.708;2023-09-30T01:38:54;25.90;45.50
80258;DHT22;69565;37.974;23.708;2023-09-30T01:41:20;26.00;45.70
80258;DHT22;69565;37.974;23.708;2023-09-30T01:43:46;26.00;45.60
80258;DHT22;69565;37.974;23.708;2023-09-30T01:46:12;26.00;45.60
80258;DHT22;69565;37.974;23.708;2023-09-30T01:48:38;26.00;45.60
80258;DHT22;69565;37.974;23.708;2023-09-30T01:51:04;26.00;45.60
80258;DHT22;69565;37.974;23.708;2023-09-30T01:53:30;26.00;45.60
80258;DHT22;69565;37.974;23.708;2023-09-30T01:55:55;26.00;45.60
80258;DHT22;69565;37.974;23.708;2023-09-30T01:58:21;26.00;45.60
80258;DHT22;69565;37.974;23.708;2023-09-30T02:00:47;25.90;45.70
80258;DHT22;69565;37.974;23.708;2023-09-30T02:03:13;26.00;45.70
80258;DHT22;69565;37.974;23.708;2023-09-30T02:05:39;26.00;45.60
80258;DHT22;69565;37.974;23.708;2023-09-30T02:08:05;26.00;45.60
80258;DHT22;69565;37.974;23.708;2023-09-30T02:10:32;26.00;45.70
80258;DHT22;69565;37.974;23.708;2023-09-30T02:13:02;26.00;45.70
80258;DHT22;69565;37.974;23.708;2023-09-30T02:15:31;26.00;46.80
80258;DHT22;69565;37.974;23.708;2023-09-30T02:17:57;26.00;45.70
80258;DHT22;69565;37.974;23.708;2023-09-30T02:20:23;25.90;45.70
80258;DHT22;69565;37.974;23.708;2023-09-30T02:22:51;26.00;45.70
80258;DHT22;69565;37.974;23.708;2023-09-30T02:25:18;26.00;45.80
80258;DHT22;69565;37.974;23.708;2023-09-30T02:27:44;25.90;45.70
80258;DHT22;69565;37.974;23.708;2023-09-30T02:30:11;26.00;45.80
80258;DHT22;69565;37.974;23.708;2023-09-30T02:32:41;26.00;45.70
80258;DHT22;69565;37.974;23.708;2023-09-30T02:35:08;25.90;45.70
80258;DHT22;69565;37.974;23.708;2023-09-30T02:37:36;26.00;45.80
80258;DHT22;69565;37.974;23.708;2023-09-30T02:40:06;25.90;45.70
80258;DHT22;69565;37.974;23.708;2023-09-30T02:42:39;25.90;45.70
80258;DHT22;69565;37.974;23.708;2023-09-30T02:45:05;25.90;45.70
80258;DHT22;69565;37.974;23.708;2023-09-30T02:47:32;25.90;45.80
80258;DHT22;69565;37.974;23.708;2023-09-30T02:49:58;25.90;45.80
80258;DHT22;69565;37.974;23.708;2023-09-30T02:52:24;25.90;45.70
80258;DHT22;69565;37.974;23.708;2023-09-30T02:54:50;25.90;45.70
80258;DHT22;69565;37.974;23.708;2023-09-30T02:57:17;25.90;45.70
80258;DHT22;69565;37.974;23.708;2023-09-30T02:59:43;25.90;45.80
80258;DHT22;69565;37.974;23.708;2023-09-30T03:02:10;25.90;45.80
80258;DHT22;69565;37.974;23.708;2023-09-30T03:04:37;25.90;45.80
80258;DHT22;69565;37.974;23.708;2023-09-30T03:07:02;25.90;45.80
80258;DHT22;69565;37.974;23.708;2023-09-30T03:09:28;25.90;45.80
80258;DHT22;69565;37.974;23.708;2023-09-30T03:11:54;25.90;45.80
80258;DHT22;69565;37.974;23.708;2023-09-30T03:14:24;25.90;45.80
80258;DHT22;69565;37.974;23.708;2023-09-30T03:16:51;26.00;45.80
80258;DHT22;69565;37.974;23.708;2023-09-30T03:19:17;25.90;45.80
80258;DHT22;69565;37.974;23.708;2023-09-30T03:21:43;25.90;45.80
80258;DHT22;69565;37.974;23.708;2023-09-30T03:24:09;25.90;45.70
80258;DHT22;69565;37.974;23.708;2023-09-30T03:26:35;25.90;45.80
80258;DHT22;69565;37.974;23.708;2023-09-30T03:29:01;25.90;45.70
80258;DHT22;69565;37.974;23.708;2023-09-30T03:31:29;25.90;45.80
80258;DHT22;69565;37.974;23.708;2023-09-30T03:33:55;25.90;45.80
80258;DHT22;69565;37.974;23.708;2023-09-30T03:36:21;25.90;45.80
80258;DHT22;69565;37.974;23.708;2023-09-30T03:38:53;25.90;45.80
80258;DHT22;69565;37.974;23.708;2023-09-30T03:41:20;25.90;45.80
80258;DHT22;69565;37.974;23.708;2023-09-30T03:43:45;25.90;45.80
80258;DHT22;69565;37.974;23.708;2023-09-30T03:46:12;25.90;45.80
80258;DHT22;69565;37.974;23.708;2023-09-30T03:48:39;25.90;45.80
80258;DHT22;69565;37.974;23.708;2023-09-30T03:51:09;26.00;45.80
80258;DHT22;69565;37.974;23.708;2023-09-30T03:53:35;25.90;45.80
80258;DHT22;69565;37.974;23.708;2023-09-30T03:56:01;25.90;45.80
80258;DHT22;69565;37.974;23.708;2023-09-30T03:58:28;25.90;45.80
80258;DHT22;69565;37.974;23.708;2023-09-30T04:00:54;25.90;45.70
80258;DHT22;69565;37.974;23.708;2023-09-30T04:03:20;25.90;45.70
80258;DHT22;69565;37.974;23.708;2023-09-30T04:05:46;25.90;45.80
80258;DHT22;69565;37.974;23.708;2023-09-30T04:08:16;26.00;46.90
80258;DHT22;69565;37.974;23.708;2023-09-30T04:10:42;26.00;45.80
80258;DHT22;69565;37.974;23.708;2023-09-30T04:13:09;26.00;45.80
80258;DHT22;69565;37.974;23.708;2023-09-30T04:15:37;26.00;45.80
80258;DHT22;69565;37.974;23.708;2023-09-30T04:18:04;25.90;45.70
80258;DHT22;69565;37.974;23.708;2023-09-30T04:20:31;26.00;46.80
80258;DHT22;69565;37.974;23.708;2023-09-30T04:22:57;26.00;45.80
80258;DHT22;69565;37.974;23.708;2023-09-30T04:25:24;26.00;45.80
80258;DHT22;69565;37.974;23.708;2023-09-30T04:27:53;25.90;45.80
80258;DHT22;69565;37.974;23.708;2023-09-30T04:30:19;26.00;45.80
80258;DHT22;69565;37.974;23.708;2023-09-30T04:32:45;25.90;45.70
80258;DHT22;69565;37.974;23.708;2023-09-30T04:35:11;26.00;45.80
80258;DHT22;69565;37.974;23.708;2023-09-30T04:37:37;25.90;45.70
80258;DHT22;69565;37.974;23.708;2023-09-30T04:40:05;25.90;45.80
80258;DHT22;69565;37.974;23.708;2023-09-30T04:42:41;26.00;45.80
80258;DHT22;69565;37.974;23.708;2023-09-30T04:45:09;25.90;45.70
80258;DHT22;69565;37.974;23.708;2023-09-30T04:47:35;26.00;45.80
80258;DHT22;69565;37.974;23.708;2023-09-30T04:50:03;26.00;45.80
80258;DHT22;69565;37.974;23.708;2023-09-30T04:52:30;26.00;45.80
80258;DHT22;69565;37.974;23.708;2023-09-30T04:54:56;26.00;45.80
80258;DHT22;69565;37.974;23.708;2023-09-30T04:57:22;26.00;45.80
80258;DHT22;69565;37.974;23.708;2023-09-30T04:59:48;26.00;45.70
80258;DHT22;69565;37.974;23.708;2023-09-30T05:02:14;26.00;45.70
80258;DHT22;69565;37.974;23.708;2023-09-30T05:04:41;26.00;45.80
80258;DHT22;69565;37.974;23.708;2023-09-30T05:07:08;26.00;45.70
80258;DHT22;69565;37.974;23.708;2023-09-30T05:09:33;26.00;45.70
80258;DHT22;69565;37.974;23.708;2023-09-30T05:11:59;26.00;45.70
80258;DHT22;69565;37.974;23.708;2023-09-30T05:14:25;26.00;45.70
80258;DHT22;69565;37.974;23.708;2023-09-30T05:16:53;26.00;45.70
80258;DHT22;69565;37.974;23.708;2023-09-30T05:19:19;26.00;45.60
80258;DHT22;69565;37.974;23.708;2023-09-30T05:21:46;26.00;45.60
80258;DHT22;69565;37.974;23.708;2023-09-30T05:24:12;26.00;45.60
80258;DHT22;69565;37.974;23.708;2023-09-30T05:26:38;26.00;45.50
80258;DHT22;69565;37.974;23.708;2023-09-30T05:29:04;26.10;45.70
80258;DHT22;69565;37.974;23.708;2023-09-30T05:31:30;26.10;45.60
80258;DHT22;69565;37.974;23.708;2023-09-30T05:33:56;26.10;45.60
80258;DHT22;69565;37.974;23.708;2023-09-30T05:36:22;26.00;45.50
80258;DHT22;69565;37.974;23.708;2023-09-30T05:38:48;26.10;45.50
80258;DHT22;69565;37.974;23.708;2023-09-30T05:41:17;26.10;45.50
80258;DHT22;69565;37.974;23.708;2023-09-30T05:43:43;26.10;45.50
80258;DHT22;69565;37.974;23.708;2023-09-30T05:46:09;26.10;45.50
80258;DHT22;69565;37.974;23.708;2023-09-30T05:48:35;26.10;45.50
80258;DHT22;69565;37.974;23.708;2023-09-30T05:51:02;26.10;45.40
80258;DHT22;69565;37.974;23.708;2023-09-30T05:53:28;26.20;45.40
80258;DHT22;69565;37.974;23.708;2023-09-30T05:55:54;26.10;45.40
80258;DHT22;69565;37.974;23.708;2023-09-30T05:58:20;26.20;45.40
80258;DHT22;69565;37.974;23.708;2023-09-30T06:00:46;26.20;45.50
80258;DHT22;69565;37.974;23.708;2023-09-30T06:03:11;26.20;45.40
80258;DHT22;69565;37.974;23.708;2023-09-30T06:05:41;26.20;45.40
80258;DHT22;69565;37.974;23.708;2023-09-30T06:08:08;26.20;45.40
80258;DHT22;69565;37.974;23.708;2023-09-30T06:10:36;26.20;45.40
80258;DHT22;69565;37.974;23.708;2023-09-30T06:13:09;26.20;45.40
80258;DHT22;69565;37.974;23.708;2023-09-30T06:15:41;26.20;45.30
80258;DHT22;69565;37.974;23.708;2023-09-30T06:18:08;26.20;45.40
80258;DHT22;69565;37.974;23.708;2023-09-30T06:20:35;26.20;45.30
80258;DHT22;69565;37.974;23.708;2023-09-30T06:23:01;26.20;45.30
80258;DHT22;69565;37.974;23.708;2023-09-30T06:25:27;26.30;45.30
80258;DHT22;69565;37.974;23.708;2023-09-30T06:27:53;26.20;45.10
80258;DHT22;69565;37.974;23.708;2023-09-30T06:30:23;26.30;45.20
80258;DHT22;69565;37.974;23.708;2023-09-30T06:32:56;26.30;45.10
80258;DHT22;69565;37.974;23.708;2023-09-30T06:35:21;26.30;45.10
80258;DHT22;69565;37.974;23.708;2023-09-30T06:37:48;26.40;45.10
80258;DHT22;69565;37.974;23.708;2023-09-30T06:40:14;26.40;45.00
80258;DHT22;69565;37.974;23.708;2023-09-30T06:42:40;26.40;45.00
80258;DHT22;69565;37.974;23.708;2023-09-30T06:45:07;26.40;46.00
80258;DHT22;69565;37.974;23.708;2023-09-30T06:47:35;26.40;44.80
80258;DHT22;69565;37.974;23.708;2023-09-30T06:50:02;26.50;44.90
80258;DHT22;69565;37.974;23.708;2023-09-30T06:52:35;26.50;44.80
80258;DHT22;69565;37.974;23.708;2023-09-30T06:55:02;26.50;44.70
80258;DHT22;69565;37.974;23.708;2023-09-30T06:57:37;26.50;44.60
80258;DHT22;69565;37.974;23.708;2023-09-30T07:00:09;26.60;44.70
80258;DHT22;69565;37.974;23.708;2023-09-30T07:02:35;26.60;44.60
80258;DHT22;69565;37.974;23.708;2023-09-30T07:07:34;26.60;44.50
80258;DHT22;69565;37.974;23.708;2023-09-30T07:10:00;26.60;44.40
80258;DHT22;69565;37.974;23.708;2023-09-30T07:12:26;26.70;44.40
80258;DHT22;69565;37.974;23.708;2023-09-30T07:14:52;26.60;44.30
80258;DHT22;69565;37.974;23.708;2023-09-30T07:17:18;26.70;44.40
80258;DHT22;69565;37.974;23.708;2023-09-30T07:19:44;26.70;44.30
80258;DHT22;69565;37.974;23.708;2023-09-30T07:22:10;26.70;44.30
80258;DHT22;69565;37.974;23.708;2023-09-30T07:24:36;26.70;44.20
80258;DHT22;69565;37.974;23.708;2023-09-30T07:27:02;26.70;44.20
80258;DHT22;69565;37.974;23.708;2023-09-30T07:29:28;26.70;44.10
80258;DHT22;69565;37.974;23.708;2023-09-30T07:31:53;26.70;44.10
80258;DHT22;69565;37.974;23.708;2023-09-30T07:34:19;26.80;44.10
80258;DHT22;69565;37.974;23.708;2023-09-30T07:36:46;26.80;44.10
80258;DHT22;69565;37.974;23.708;2023-09-30T07:39:12;26.80;44.00
80258;DHT22;69565;37.974;23.708;2023-09-30T07:41:38;26.90;44.00
80258;DHT22;69565;37.974;23.708;2023-09-30T07:44:04;26.90;43.90
80258;DHT22;69565;37.974;23.708;2023-09-30T07:46:31;26.90;43.90
80258;DHT22;69565;37.974;23.708;2023-09-30T07:48:56;26.90;43.90
80258;DHT22;69565;37.974;23.708;2023-09-30T07:51:24;26.90;43.90
80258;DHT22;69565;37.974;23.708;2023-09-30T07:53:50;26.90;43.90
80258;DHT22;69565;37.974;23.708;2023-09-30T07:56:16;27.00;43.80
80258;DHT22;69565;37.974;23.708;2023-09-30T07:58:42;27.00;43.80
80258;DHT22;69565;37.974;23.708;2023-09-30T08:01:08;27.00;43.80
80258;DHT22;69565;37.974;23.708;2023-09-30T08:03:34;27.00;43.80
80258;DHT22;69565;37.974;23.708;2023-09-30T08:06:00;27.00;43.70
80258;DHT22;69565;37.974;23.708;2023-09-30T08:08:26;27.00;43.60
80258;DHT22;69565;37.974;23.708;2023-09-30T08:10:52;27.00;43.60
80258;DHT22;69565;37.974;23.708;2023-09-30T08:13:24;27.00;43.50
80258;DHT22;69565;37.974;23.708;2023-09-30T08:15:51;27.00;43.50
80258;DHT22;69565;37.974;23.708;2023-09-30T08:18:18;27.00;43.50
80258;DHT22;69565;37.974;23.708;2023-09-30T08:20:44;27.10;43.60
80258;DHT22;69565;37.974;23.708;2023-09-30T08:23:10;27.10;43.50
80258;DHT22;69565;37.974;23.708;2023-09-30T08:25:37;27.10;43.50
80258;DHT22;69565;37.974;23.708;2023-09-30T08:28:04;27.10;43.50
80258;DHT22;69565;37.974;23.708;2023-09-30T08:30:30;27.10;43.50
80258;DHT22;69565;37.974;23.708;2023-09-30T08:32:56;27.10;43.40
80258;DHT22;69565;37.974;23.708;2023-09-30T08:35:22;27.20;43.40
80258;DHT22;69565;37.974;23.708;2023-09-30T08:37:47;27.20;43.30
80258;DHT22;69565;37.974;23.708;2023-09-30T08:40:13;27.20;43.30
80258;DHT22;69565;37.974;23.708;2023-09-30T08:42:39;27.30;43.30
80258;DHT22;69565;37.974;23.708;2023-09-30T08:45:09;27.20;43.20
80258;DHT22;69565;37.974;23.708;2023-09-30T08:47:36;27.20;43.10
80258;DHT22;69565;37.974;23.708;2023-09-30T08:50:03;27.30;43.20
80258;DHT22;69565;37.974;23.708;2023-09-30T08:52:34;27.30;43.10
80258;DHT22;69565;37.974;23.708;2023-09-30T08:55:01;27.30;43.10
80258;DHT22;69565;37.974;23.708;2023-09-30T08:57:28;27.30;43.00
80258;DHT22;69565;37.974;23.708;2023-09-30T08:59:55;27.30;43.00
80258;DHT22;69565;37.974;23.708;2023-09-30T09:02:21;27.30;43.00
80258;DHT22;69565;37.974;23.708;2023-09-30T09:04:47;27.30;42.90
80258;DHT22;69565;37.974;23.708;2023-09-30T09:07:14;27.40;43.00
80258;DHT22;69565;37.974;23.708;2023-09-30T09:09:41;27.30;42.90
80258;DHT22;69565;37.974;23.708;2023-09-30T09:12:17;27.40;42.90
80258;DHT22;69565;37.974;23.708;2023-09-30T09:14:44;27.40;43.00
80258;DHT22;69565;37.974;23.708;2023-09-30T09:17:11;27.40;42.90
80258;DHT22;69565;37.974;23.708;2023-09-30T09:19:37;27.40;42.90
80258;DHT22;69565;37.974;23.708;2023-09-30T09:22:03;27.40;42.80
80258;DHT22;69565;37.974;23.708;2023-09-30T09:24:33;27.40;42.80
80258;DHT22;69565;37.974;23.708;2023-09-30T09:27:09;27.40;42.70
80258;DHT22;69565;37.974;23.708;2023-09-30T09:29:36;27.40;42.70
80258;DHT22;69565;37.974;23.708;2023-09-30T09:32:15;27.50;42.70
80258;DHT22;69565;37.974;23.708;2023-09-30T09:34:42;27.50;42.70
80258;DHT22;69565;37.974;23.708;2023-09-30T09:37:21;27.50;42.70
80258;DHT22;69565;37.974;23.708;2023-09-30T09:39:58;27.50;42.70
80258;DHT22;69565;37.974;23.708;2023-09-30T09:42:28;27.50;42.70
80258;DHT22;69565;37.974;23.708;2023-09-30T09:44:56;27.50;42.70
80258;DHT22;69565;37.974;23.708;2023-09-30T09:47:23;27.50;42.60
80258;DHT22;69565;37.974;23.708;2023-09-30T09:49:53;27.50;42.70
80258;DHT22;69565;37.974;23.708;2023-09-30T09:52:20;27.40;42.60
80258;DHT22;69565;37.974;23.708;2023-09-30T09:54:46;27.50;42.70
80258;DHT22;69565;37.974;23.708;2023-09-30T09:57:14;27.40;42.60
80258;DHT22;69565;37.974;23.708;2023-09-30T09:59:43;27.40;42.60
80258;DHT22;69565;37.974;23.708;2023-09-30T10:02:14;27.50;42.60
80258;DHT22;69565;37.974;23.708;2023-09-30T10:04:41;27.50;42.60
80258;DHT22;69565;37.974;23.708;2023-09-30T10:07:18;27.50;42.60
80258;DHT22;69565;37.974;23.708;2023-09-30T10:09:47;27.50;42.60
80258;DHT22;69565;37.974;23.708;2023-09-30T10:12:15;27.50;42.60
80258;DHT22;69565;37.974;23.708;2023-09-30T10:14:41;27.50;42.60
80258;DHT22;69565;37.974;23.708;2023-09-30T10:17:06;27.50;42.60
80258;DHT22;69565;37.974;23.708;2023-09-30T10:19:32;27.50;42.50
80258;DHT22;69565;37.974;23.708;2023-09-30T10:24:46;27.50;42.50
80258;DHT22;69565;37.974;23.708;2023-09-30T10:30:08;27.50;42.50
80258;DHT22;69565;37.974;23.708;2023-09-30T10:35:17;27.50;42.40
80258;DHT22;69565;37.974;23.708;2023-09-30T10:37:44;27.50;42.40
80258;DHT22;69565;37.974;23.708;2023-09-30T10:40:30;27.50;42.40
80258;DHT22;69565;37.974;23.708;2023-09-30T10:42:56;27.50;42.40
80258;DHT22;69565;37.974;23.708;2023-09-30T10:50:55;27.50;42.30
80258;DHT22;69565;37.974;23.708;2023-09-30T10:53:22;27.50;42.30
80258;DHT22;69565;37.974;23.708;2023-09-30T10:55:58;27.50;42.20
80258;DHT22;69565;37.974;23.708;2023-09-30T10:58:44;27.60;42.30
80258;DHT22;69565;37.974;23.708;2023-09-30T11:01:12;27.50;42.10
80258;DHT22;69565;37.974;23.708;2023-09-30T11:03:42;27.50;42.20
80258;DHT22;69565;37.974;23.708;2023-09-30T11:06:11;27.50;42.10
80258;DHT22;69565;37.974;23.708;2023-09-30T11:08:44;27.50;42.10
80258;DHT22;69565;37.974;23.708;2023-09-30T11:11:11;27.50;42.10
80258;DHT22;69565;37.974;23.708;2023-09-30T11:13:37;27.60;42.10
80258;DHT22;69565;37.974;23.708;2023-09-30T11:16:04;27.60;42.20
80258;DHT22;69565;37.974;23.708;2023-09-30T11:18:31;27.60;42.20
80258;DHT22;69565;37.974;23.708;2023-09-30T11:21:04;27.50;42.00
80258;DHT22;69565;37.974;23.708;2023-09-30T11:23:31;27.50;42.00
80258;DHT22;69565;37.974;23.708;2023-09-30T11:25:57;27.50;42.00
80258;DHT22;69565;37.974;23.708;2023-09-30T11:28:23;27.60;42.10
80258;DHT22;69565;37.974;23.708;2023-09-30T11:30:59;27.50;42.00
80258;DHT22;69565;37.974;23.708;2023-09-30T11:33:25;27.50;42.00
80258;DHT22;69565;37.974;23.708;2023-09-30T11:36:04;27.60;42.10
80258;DHT22;69565;37.974;23.708;2023-09-30T11:38:32;27.60;42.10
80258;DHT22;69565;37.974;23.708;2023-09-30T11:41:06;27.60;42.10
80258;DHT22;69565;37.974;23.708;2023-09-30T11:43:35;27.60;42.10
80258;DHT22;69565;37.974;23.708;2023-09-30T11:46:05;27.60;42.10
80258;DHT22;69565;37.974;23.708;2023-09-30T11:48:31;27.60;42.10
80258;DHT22;69565;37.974;23.708;2023-09-30T11:50:59;27.60;42.00
80258;DHT22;69565;37.974;23.708;2023-09-30T11:53:31;27.60;42.00
80258;DHT22;69565;37.974;23.708;2023-09-30T11:55:58;27.60;42.00
80258;DHT22;69565;37.974;23.708;2023-09-30T11:58:28;27.60;42.00
80258;DHT22;69565;37.974;23.708;2023-09-30T12:00:55;27.60;42.10
80258;DHT22;69565;37.974;23.708;2023-09-30T12:03:23;27.60;42.00
80258;DHT22;69565;37.974;23.708;2023-09-30T12:05:49;27.50;41.90
80258;DHT22;69565;37.974;23.708;2023-09-30T12:08:15;27.60;42.00
80258;DHT22;69565;37.974;23.708;2023-09-30T12:10:40;27.60;42.00
80258;DHT22;69565;37.974;23.708;2023-09-30T12:13:06;27.60;42.00
80258;DHT22;69565;37.974;23.708;2023-09-30T12:15:32;27.60;42.00
80258;DHT22;69565;37.974;23.708;2023-09-30T12:17:58;27.60;42.00
80258;DHT22;69565;37.974;23.708;2023-09-30T12:20:24;27.60;42.00
80258;DHT22;69565;37.974;23.708;2023-09-30T12:22:50;27.50;41.90
80258;DHT22;69565;37.974;23.708;2023-09-30T12:25:19;27.60;42.00
80258;DHT22;69565;37.974;23.708;2023-09-30T12:27:48;27.60;41.90
80258;DHT22;69565;37.974;23.708;2023-09-30T12:30:14;27.60;42.00
80258;DHT22;69565;37.974;23.708;2023-09-30T12:32:40;27.60;42.50
80258;DHT22;69565;37.974;23.708;2023-09-30T12:35:06;27.60;41.90
80258;DHT22;69565;37.974;23.708;2023-09-30T12:37:32;27.60;41.90
80258;DHT22;69565;37.974;23.708;2023-09-30T12:39:58;27.60;41.90
80258;DHT22;69565;37.974;23.708;2023-09-30T12:42:24;27.60;41.90
80258;DHT22;69565;37.974;23.708;2023-09-30T12:44:50;27.60;41.90
80258;DHT22;69565;37.974;23.708;2023-09-30T12:47:16;27.60;41.80
80258;DHT22;69565;37.974;23.708;2023-09-30T12:49:41;27.60;41.80
80258;DHT22;69565;37.974;23.708;2023-09-30T12:52:07;27.60;41.80
80258;DHT22;69565;37.974;23.708;2023-09-30T12:54:33;27.60;41.80
80258;DHT22;69565;37.974;23.708;2023-09-30T12:56:59;27.60;41.80
80258;DHT22;69565;37.974;23.708;2023-09-30T12:59:25;27.60;41.80
80258;DHT22;69565;37.974;23.708;2023-09-30T13:01:51;27.60;41.70
80258;DHT22;69565;37.974;23.708;2023-09-30T13:04:17;27.60;41.80
80258;DHT22;69565;37.974;23.708;2023-09-30T13:06:44;27.60;41.80
80258;DHT22;69565;37.974;23.708;2023-09-30T13:09:10;27.60;41.70
80258;DHT22;69565;37.974;23.708;2023-09-30T13:11:37;27.60;41.70
80258;DHT22;69565;37.974;23.708;2023-09-30T13:14:04;27.50;41.60
80258;DHT22;69565;37.974;23.708;2023-09-30T13:16:31;27.50;41.60
80258;DHT22;69565;37.974;23.708;2023-09-30T13:18:57;27.60;41.60
80258;DHT22;69565;37.974;23.708;2023-09-30T13:21:23;27.60;41.60
80258;DHT22;69565;37.974;23.708;2023-09-30T13:23:48;27.60;41.60
80258;DHT22;69565;37.974;23.708;2023-09-30T13:26:14;27.60;41.50
80258;DHT22;69565;37.974;23.708;2023-09-30T13:28:40;27.60;41.40
80258;DHT22;69565;37.974;23.708;2023-09-30T13:31:06;27.60;41.60
80258;DHT22;69565;37.974;23.708;2023-09-30T13:33:32;27.60;41.50
80258;DHT22;69565;37.974;23.708;2023-09-30T13:35:58;27.60;41.50
80258;DHT22;69565;37.974;23.708;2023-09-30T13:38:24;27.60;41.50
80258;DHT22;69565;37.974;23.708;2023-09-30T13:40:50;27.60;41.50
80258;DHT22;69565;37.974;23.708;2023-09-30T13:43:16;27.50;41.30
80258;DHT22;69565;37.974;23.708;2023-09-30T13:45:41;27.60;41.40
80258;DHT22;69565;37.974;23.708;2023-09-30T13:48:07;27.60;41.40
80258;DHT22;69565;37.974;23.708;2023-09-30T13:50:33;27.60;41.40
80258;DHT22;69565;37.974;23.708;2023-09-30T13:52:59;27.50;41.30
80258;DHT22;69565;37.974;23.708;2023-09-30T13:55:26;27.60;41.30
80258;DHT22;69565;37.974;23.708;2023-09-30T13:57:52;27.60;41.40
80258;DHT22;69565;37.974;23.708;2023-09-30T14:00:18;27.60;41.30
80258;DHT22;69565;37.974;23.708;2023-09-30T14:02:44;27.60;41.40
80258;DHT22;69565;37.974;23.708;2023-09-30T14:05:10;27.50;41.30
80258;DHT22;69565;37.974;23.708;2023-09-30T14:07:37;27.50;41.30
80258;DHT22;69565;37.974;23.708;2023-09-30T14:10:04;27.50;42.30
80258;DHT22;69565;37.974;23.708;2023-09-30T14:12:31;27.60;41.30
80258;DHT22;69565;37.974;23.708;2023-09-30T14:14:57;27.50;41.30
80258;DHT22;69565;37.974;23.708;2023-09-30T14:17:23;27.60;41.40
80258;DHT22;69565;37.974;23.708;2023-09-30T14:19:49;27.50;41.20
80258;DHT22;69565;37.974;23.708;2023-09-30T14:22:15;27.50;41.20
80258;DHT22;69565;37.974;23.708;2023-09-30T14:24:40;27.50;41.20
80258;DHT22;69565;37.974;23.708;2023-09-30T14:27:06;27.50;41.20
80258;DHT22;69565;37.974;23.708;2023-09-30T14:29:34;27.60;41.30
80258;DHT22;69565;37.974;23.708;2023-09-30T14:31:59;27.50;41.30
80258;DHT22;69565;37.974;23.708;2023-09-30T14:34:25;27.50;41.20
80258;DHT22;69565;37.974;23.708;2023-09-30T14:36:51;27.50;41.30
80258;DHT22;69565;37.974;23.708;2023-09-30T14:39:18;27.50;41.30
80258;DHT22;69565;37.974;23.708;2023-09-30T14:41:44;27.50;41.20
80258;DHT22;69565;37.974;23.708;2023-09-30T14:44:10;27.50;41.20
80258;DHT22;69565;37.974;23.708;2023-09-30T14:46:38;27.50;41.30
80258;DHT22;69565;37.974;23.708;2023-09-30T14:49:04;27.60;41.30
80258;DHT22;69565;37.974;23.708;2023-09-30T14:51:32;27.50;41.20
80258;DHT22;69565;37.974;23.708;2023-09-30T14:53:57;27.50;41.30
80258;DHT22;69565;37.974;23.708;2023-09-30T14:56:23;27.50;41.20
80258;DHT22;69565;37.974;23.708;2023-09-30T14:58:49;27.50;41.30
80258;DHT22;69565;37.974;23.708;2023-09-30T15:01:15;27.50;41.20
80258;DHT22;69565;37.974;23.708;2023-09-30T15:03:40;27.50;41.20
80258;DHT22;69565;37.974;23.708;2023-09-30T15:06:07;27.50;41.30
80258;DHT22;69565;37.974;23.708;2023-09-30T15:08:33;27.50;41.20
80258;DHT22;69565;37.974;23.708;2023-09-30T15:10:59;27.50;41.20
80258;DHT22;69565;37.974;23.708;2023-09-30T15:13:26;27.50;41.30
80258;DHT22;69565;37.974;23.708;2023-09-30T15:15:52;27.50;41.30
80258;DHT22;69565;37.974;23.708;2023-09-30T15:18:18;27.50;41.20
80258;DHT22;69565;37.974;23.708;2023-09-30T15:20:44;27.50;41.30
80258;DHT22;69565;37.974;23.708;2023-09-30T15:23:10;27.50;41.30
80258;DHT22;69565;37.974;23.708;2023-09-30T15:25:43;27.50;42.30
80258;DHT22;69565;37.974;23.708;2023-09-30T15:28:12;27.50;41.20
80258;DHT22;69565;37.974;23.708;2023-09-30T15:30:41;27.50;41.30